createdAt,value
2019-03-06T00:02:25.597Z,94.60
2019-03-06T00:05:05.558Z,94.70
2019-03-06T00:07:45.781Z,95.00
2019-03-06T00:10:25.687Z,95.00
2019-03-06T00:13:05.635Z,95.10
2019-03-06T00:15:45.404Z,94.90
2019-03-06T00:18:25.653Z,95.30
2019-03-06T00:21:05.505Z,95.40
2019-03-06T00:23:44.593Z,95.60
2019-03-06T00:26:24.582Z,95.40
2019-03-06T00:29:04.729Z,95.60
2019-03-06T00:31:44.726Z,95.90
2019-03-06T00:34:24.665Z,96.00
2019-03-06T00:40:36.726Z,95.40
2019-03-06T00:43:14.138Z,95.00
2019-03-06T00:45:53.834Z,95.00
2019-03-06T00:48:33.038Z,95.00
2019-03-06T00:51:12.567Z,95.20
2019-03-06T00:53:52.263Z,95.30
2019-03-06T00:56:31.476Z,95.20
2019-03-06T00:59:11.477Z,95.50
2019-03-06T01:01:51.618Z,95.40
2019-03-06T01:04:31.581Z,95.40
2019-03-06T01:07:11.543Z,95.80
2019-03-06T01:09:51.415Z,95.60
2019-03-06T01:12:31.696Z,95.50
2019-03-06T01:15:11.615Z,95.40
2019-03-06T01:17:51.833Z,95.60
2019-03-06T01:20:31.541Z,95.90
2019-03-06T01:23:11.841Z,95.80
2019-03-06T01:25:51.589Z,95.90
2019-03-06T01:28:30.966Z,96.10
2019-03-06T01:31:10.901Z,96.30
2019-03-06T01:36:46.577Z,96.30
2019-03-06T01:42:24.713Z,96.50
2019-03-06T01:45:04.751Z,96.30
2019-03-06T01:47:44.787Z,96.50
2019-03-06T01:50:24.913Z,96.80
2019-03-06T01:53:04.957Z,96.80
2019-03-06T01:55:45.270Z,97.00
2019-03-06T01:58:25.070Z,96.90
2019-03-06T02:01:05.033Z,97.00
2019-03-06T02:03:44.243Z,97.10
2019-03-06T02:06:23.403Z,97.20
2019-03-06T02:09:02.776Z,97.20
2019-03-06T02:11:42.778Z,97.00
2019-03-06T02:14:22.765Z,97.20
2019-03-06T02:17:02.805Z,97.10
2019-03-06T02:19:41.870Z,97.10
2019-03-06T02:22:20.957Z,97.20
2019-03-06T02:25:00.347Z,97.20
2019-03-06T02:27:40.524Z,97.30
2019-03-06T02:30:20.463Z,97.40
2019-03-06T02:33:00.185Z,97.20
2019-03-06T02:35:40.435Z,97.40
2019-03-06T02:38:20.118Z,97.40
2019-03-06T02:41:00.201Z,97.40
2019-03-06T02:43:40.176Z,97.50
2019-03-06T02:46:17.701Z,97.60
2019-03-06T02:49:03.881Z,97.80
2019-03-06T02:51:43.289Z,97.60
2019-03-06T02:54:20.610Z,97.60
2019-03-06T02:57:02.353Z,97.70
2019-03-06T02:59:43.578Z,97.70
2019-03-06T03:02:23.039Z,97.50
2019-03-06T03:05:29.188Z,97.20
2019-03-06T03:08:08.934Z,97.40
2019-03-06T03:10:48.602Z,97.40
2019-03-06T03:13:27.842Z,97.40
2019-03-06T03:16:05.227Z,97.50
2019-03-06T03:21:42.959Z,97.80
2019-03-06T03:24:22.135Z,97.60
2019-03-06T03:27:01.939Z,97.80
2019-03-06T03:29:41.135Z,97.80
2019-03-06T03:32:21.279Z,97.70
2019-03-06T03:35:01.253Z,97.90
2019-03-06T03:37:41.418Z,97.90
2019-03-06T03:40:21.306Z,97.90
2019-03-06T03:43:00.655Z,97.80
2019-03-06T03:45:37.933Z,97.60
2019-03-06T03:48:24.338Z,97.80
2019-03-06T03:51:03.525Z,97.90
2019-03-06T03:53:43.755Z,97.70
2019-03-06T03:56:23.534Z,97.80
2019-03-06T04:02:15.706Z,97.80
2019-03-06T04:04:55.585Z,97.80
2019-03-06T04:07:35.722Z,98.00
2019-03-06T04:13:13.852Z,98.10
2019-03-06T04:15:51.317Z,98.10
2019-03-06T04:18:37.785Z,98.40
2019-03-06T04:21:16.940Z,98.70
2019-03-06T04:23:56.843Z,98.70
2019-03-06T04:26:36.770Z,99.00
2019-03-06T04:29:03.544Z,98.80
2019-03-06T04:31:49.733Z,99.30
2019-03-06T04:34:29.905Z,99.50
2019-03-06T04:37:09.067Z,99.50
2019-03-06T04:39:49.250Z,99.80
2019-03-06T04:42:29.121Z,99.90
2019-03-06T04:45:08.294Z,99.90
2019-03-06T04:47:48.181Z,99.90
2019-03-06T04:50:28.189Z,99.90
2019-03-06T04:53:07.304Z,99.90
2019-03-06T04:55:47.289Z,99.90
2019-03-06T04:58:26.397Z,99.90
2019-03-06T05:01:06.559Z,99.70
2019-03-06T05:03:46.559Z,99.50
2019-03-06T05:06:26.625Z,99.30
2019-03-06T05:09:06.509Z,99.40
2019-03-06T05:11:43.877Z,99.60
2019-03-06T05:14:23.538Z,99.70
2019-03-06T05:19:45.467Z,99.70
2019-03-06T05:22:11.709Z,99.70
2019-03-06T05:24:37.977Z,99.80
2019-03-06T05:27:24.375Z,99.80
2019-03-06T05:30:11.473Z,99.90
2019-03-06T05:32:51.184Z,99.90
2019-03-06T05:38:29.553Z,99.90
2019-03-06T05:40:55.957Z,99.90
2019-03-06T05:43:42.101Z,99.90
2019-03-06T05:46:28.521Z,99.90
2019-03-06T05:48:55.190Z,99.90
2019-03-06T05:51:43.198Z,99.90
2019-03-06T05:54:22.589Z,99.90
2019-03-06T05:56:48.925Z,99.90
2019-03-06T05:59:15.473Z,99.90
2019-03-06T06:02:01.590Z,99.90
2019-03-06T06:04:27.836Z,99.90
2019-03-06T06:07:13.957Z,99.90
2019-03-06T06:09:53.679Z,99.90
2019-03-06T06:12:20.046Z,99.90
2019-03-06T06:14:46.376Z,99.90
2019-03-06T06:17:32.633Z,99.80
2019-03-06T06:19:58.922Z,99.70
2019-03-06T06:23:05.001Z,99.80
2019-03-06T06:28:13.858Z,99.70
2019-03-06T06:31:00.177Z,99.40
2019-03-06T06:39:39.873Z,97.80
2019-03-06T06:42:20.953Z,98.00
2019-03-06T06:45:00.792Z,98.00
2019-03-06T06:47:40.713Z,97.70
2019-03-06T06:50:39.751Z,97.40
2019-03-06T06:53:45.759Z,97.30
2019-03-06T06:56:24.961Z,97.30
2019-03-06T06:59:13.070Z,96.80
2019-03-06T07:08:21.034Z,96.00
2019-03-06T07:11:20.005Z,96.40
2019-03-06T07:14:01.942Z,96.40
2019-03-06T07:16:43.016Z,96.20
2019-03-06T07:19:25.129Z,96.40
2019-03-06T07:22:07.047Z,97.00
2019-03-06T07:25:06.263Z,96.90
2019-03-06T07:27:47.390Z,97.40
2019-03-06T07:33:36.564Z,97.70
2019-03-06T07:36:37.761Z,98.00
2019-03-06T07:39:19.635Z,98.30
2019-03-06T07:42:19.518Z,98.70
2019-03-06T07:51:34.183Z,99.30
2019-03-06T07:57:17.930Z,99.60
2019-03-06T07:59:57.107Z,99.70
2019-03-06T08:03:03.355Z,99.90
2019-03-06T08:05:29.607Z,99.90
2019-03-06T08:08:16.021Z,99.90
2019-03-06T08:10:56.976Z,99.90
2019-03-06T08:13:38.721Z,99.90
2019-03-06T08:16:23.510Z,99.90
2019-03-06T08:22:15.793Z,99.90
2019-03-06T08:25:02.109Z,99.90
2019-03-06T08:27:48.422Z,99.90
2019-03-06T08:36:38.784Z,99.90
2019-03-06T08:39:18.759Z,99.90
2019-03-06T08:41:58.862Z,99.90
2019-03-06T08:44:38.670Z,99.90
2019-03-06T08:47:17.957Z,99.90
2019-03-06T08:50:17.611Z,99.90
2019-03-06T08:53:16.659Z,99.90
2019-03-06T08:56:15.892Z,99.90
2019-03-06T08:58:57.001Z,99.90
2019-03-06T09:02:00.654Z,99.90
2019-03-06T09:04:42.190Z,99.90
2019-03-06T09:07:29.005Z,99.90
2019-03-06T09:10:28.715Z,99.90
2019-03-06T09:13:09.759Z,99.90
2019-03-06T09:16:08.917Z,99.90
2019-03-06T09:18:52.852Z,99.90
2019-03-06T09:21:51.967Z,99.90
2019-03-06T09:24:33.725Z,99.90
2019-03-06T09:30:28.426Z,99.90
2019-03-06T09:33:09.529Z,99.90
2019-03-06T09:39:03.652Z,99.90
2019-03-06T09:41:45.117Z,99.90
2019-03-06T09:44:29.472Z,99.90
2019-03-06T09:47:29.172Z,99.90
2019-03-06T09:50:11.347Z,99.90
2019-03-06T09:53:10.602Z,99.90
2019-03-06T09:56:10.427Z,99.90
2019-03-06T09:58:54.377Z,99.90
2019-03-06T10:01:38.681Z,99.90
2019-03-06T10:04:20.582Z,99.90
2019-03-06T10:07:01.854Z,99.90
2019-03-06T10:09:46.697Z,99.90
2019-03-06T10:18:37.520Z,99.90
2019-03-06T10:21:16.957Z,99.90
2019-03-06T10:23:56.904Z,99.90
2019-03-06T10:26:36.721Z,99.90
2019-03-06T10:29:14.018Z,99.90
2019-03-06T10:31:53.649Z,99.90
2019-03-06T10:34:36.415Z,99.90
2019-03-06T10:37:15.807Z,99.90
2019-03-06T10:39:55.620Z,99.90
2019-03-06T10:42:33.119Z,99.90
2019-03-06T10:45:12.680Z,99.90
2019-03-06T10:47:52.719Z,99.90
2019-03-06T10:50:32.696Z,99.90
2019-03-06T10:53:12.700Z,99.90
2019-03-06T10:55:52.690Z,99.90
2019-03-06T10:58:29.997Z,99.90
2019-03-06T11:01:10.044Z,99.90
2019-03-06T11:03:51.419Z,99.90
2019-03-06T11:06:31.398Z,99.90
2019-03-06T11:09:11.308Z,99.90
2019-03-06T11:11:51.495Z,99.90
2019-03-06T11:14:31.659Z,99.90
2019-03-06T11:17:12.021Z,99.90
2019-03-06T11:19:51.789Z,99.90
2019-03-06T11:22:30.974Z,99.90
2019-03-06T11:25:10.177Z,99.90
2019-03-06T11:27:50.461Z,99.90
2019-03-06T11:30:30.725Z,99.90
2019-03-06T11:33:10.817Z,99.90
2019-03-06T11:35:50.725Z,99.90
2019-03-06T11:38:30.035Z,99.90
2019-03-06T11:41:10.026Z,99.90
2019-03-06T11:43:49.210Z,99.90
2019-03-06T11:46:29.167Z,99.90
2019-03-06T11:52:22.530Z,99.90
2019-03-06T11:55:06.139Z,99.90
2019-03-06T11:57:43.493Z,99.90
2019-03-06T12:00:43.334Z,99.90
2019-03-06T12:03:23.180Z,99.90
2019-03-06T12:06:02.765Z,99.90
2019-03-06T12:08:45.829Z,99.90
2019-03-06T12:11:23.719Z,99.90
2019-03-06T12:17:01.870Z,99.90
2019-03-06T12:19:41.026Z,99.90
2019-03-06T12:22:18.305Z,99.90
2019-03-06T12:24:58.194Z,99.90
2019-03-06T12:27:38.155Z,99.90
2019-03-06T12:30:18.217Z,99.90
2019-03-06T12:36:10.341Z,99.90
2019-03-06T12:38:50.043Z,99.90
2019-03-06T12:41:30.105Z,99.90
2019-03-06T12:44:10.762Z,99.90
2019-03-06T12:46:50.314Z,99.90
2019-03-06T12:49:30.070Z,99.90
2019-03-06T12:52:10.038Z,99.90
2019-03-06T12:54:49.238Z,99.90
2019-03-06T12:57:29.449Z,99.90
2019-03-06T13:00:10.052Z,99.90
2019-03-06T13:02:50.521Z,99.90
2019-03-06T13:05:30.119Z,99.90
2019-03-06T13:08:19.227Z,99.90
2019-03-06T13:10:51.181Z,99.90
2019-03-06T13:13:35.538Z,99.90
2019-03-06T13:16:13.075Z,99.90
2019-03-06T13:18:52.402Z,99.90
2019-03-06T13:21:34.118Z,99.90
2019-03-06T13:24:14.180Z,99.90
2019-03-06T13:26:53.505Z,99.90
2019-03-06T13:29:31.012Z,99.90
2019-03-06T13:31:57.574Z,99.90
2019-03-06T13:34:50.788Z,99.90
2019-03-06T13:37:12.245Z,99.90
2019-03-06T13:39:58.470Z,99.90
2019-03-06T13:42:38.449Z,99.90
2019-03-06T13:45:17.743Z,99.90
2019-03-06T13:47:57.639Z,99.90
2019-03-06T13:50:35.157Z,99.90
2019-03-06T13:53:20.224Z,99.90
2019-03-06T13:55:55.768Z,99.90
2019-03-06T13:58:35.576Z,99.90
2019-03-06T14:01:15.340Z,99.90
2019-03-06T14:03:55.282Z,99.90
2019-03-06T14:06:35.377Z,99.90
2019-03-06T14:09:15.353Z,99.90
2019-03-06T14:14:54.142Z,99.90
2019-03-06T14:17:40.337Z,99.90
2019-03-06T14:20:20.982Z,99.90
2019-03-06T14:23:01.752Z,99.90
2019-03-06T14:25:41.719Z,99.90
2019-03-06T14:28:21.625Z,99.90
2019-03-06T14:30:48.486Z,99.90
2019-03-06T14:33:34.693Z,99.90
2019-03-06T14:36:15.331Z,99.90
2019-03-06T14:38:54.885Z,99.90
2019-03-06T14:41:34.836Z,99.90
2019-03-06T14:44:12.224Z,99.90
2019-03-06T14:46:52.093Z,99.90
2019-03-06T14:49:31.923Z,99.90
2019-03-06T14:52:09.425Z,99.90
2019-03-06T14:54:55.634Z,99.90
2019-03-06T14:57:35.015Z,99.90
2019-03-06T15:00:14.227Z,99.90
2019-03-06T15:02:54.164Z,99.90
2019-03-06T15:05:34.199Z,99.90
2019-03-06T15:08:14.449Z,99.90
2019-03-06T15:10:54.281Z,99.90
2019-03-06T15:13:34.297Z,99.90
2019-03-06T15:16:14.325Z,99.90
2019-03-06T15:18:54.487Z,99.90
2019-03-06T15:21:35.186Z,99.90
2019-03-06T15:24:15.443Z,99.90
2019-03-06T15:26:55.327Z,99.90
2019-03-06T15:29:34.653Z,99.90
2019-03-06T15:35:27.121Z,99.90
2019-03-06T15:38:06.687Z,99.90
2019-03-06T15:40:45.945Z,99.90
2019-03-06T15:43:26.066Z,99.90
2019-03-06T15:46:06.085Z,99.90
2019-03-06T15:48:45.893Z,99.90
2019-03-06T15:51:25.671Z,99.90
2019-03-06T15:54:02.830Z,99.90
2019-03-06T15:56:42.565Z,99.90
2019-03-06T15:59:22.702Z,99.90
2019-03-06T16:02:02.847Z,99.90
2019-03-06T16:04:42.751Z,99.90
2019-03-06T16:07:22.983Z,99.90
2019-03-06T16:10:02.806Z,99.90
2019-03-06T16:12:42.772Z,99.90
2019-03-06T16:15:22.677Z,99.90
2019-03-06T16:18:02.006Z,99.90
2019-03-06T16:20:42.134Z,99.90
2019-03-06T16:23:21.466Z,99.90
2019-03-06T16:26:01.355Z,99.90
2019-03-06T16:28:42.341Z,99.90
2019-03-06T16:31:21.438Z,99.90
2019-03-06T16:34:00.622Z,99.90
2019-03-06T16:36:39.751Z,99.90
2019-03-06T16:39:27.880Z,99.90
2019-03-06T16:42:14.289Z,99.90
2019-03-06T16:44:53.657Z,99.90
2019-03-06T16:47:33.555Z,99.90
2019-03-06T16:50:16.164Z,99.90
2019-03-06T16:53:00.019Z,99.90
2019-03-06T16:55:37.255Z,99.90
2019-03-06T16:58:16.962Z,99.90
2019-03-06T17:06:53.439Z,99.90
2019-03-06T17:09:33.303Z,99.90
2019-03-06T17:12:13.323Z,99.90
2019-03-06T17:14:53.293Z,99.90
2019-03-06T17:17:33.173Z,99.90
2019-03-06T17:20:13.138Z,99.90
2019-03-06T17:22:55.243Z,99.90
2019-03-06T17:25:34.334Z,99.90
2019-03-06T17:28:14.670Z,99.90
2019-03-06T17:30:56.491Z,99.90
2019-03-06T17:33:33.709Z,99.90
2019-03-06T17:36:19.913Z,99.90
2019-03-06T17:38:59.710Z,99.90
2019-03-06T17:41:39.267Z,99.90
2019-03-06T17:44:19.315Z,99.90
2019-03-06T17:46:59.279Z,99.90
2019-03-06T17:49:38.457Z,99.90
2019-03-06T17:52:18.304Z,99.90
2019-03-06T17:54:58.154Z,99.90
2019-03-06T17:57:39.109Z,99.90
2019-03-06T18:00:21.258Z,99.90
2019-03-06T18:03:01.265Z,99.90
2019-03-06T18:05:41.245Z,99.90
2019-03-06T18:08:20.922Z,99.90
2019-03-06T18:11:00.993Z,99.90
2019-03-06T18:13:40.739Z,99.90
2019-03-06T18:16:21.787Z,99.90
2019-03-06T18:19:02.134Z,99.90
2019-03-06T18:21:42.265Z,99.90
2019-03-06T18:24:22.093Z,99.90
2019-03-06T18:27:02.327Z,99.90
2019-03-06T18:29:42.475Z,99.90
2019-03-06T18:32:23.732Z,99.90
2019-03-06T18:34:50.489Z,99.90
2019-03-06T18:37:37.093Z,99.90
2019-03-06T18:40:24.193Z,99.90
2019-03-06T18:43:03.671Z,99.90
2019-03-06T18:45:43.545Z,99.90
2019-03-06T18:48:22.783Z,99.90
2019-03-06T18:51:02.674Z,99.90
2019-03-06T18:53:41.908Z,99.90
2019-03-06T18:56:08.359Z,99.90
2019-03-06T18:58:54.720Z,99.90
2019-03-06T19:01:41.105Z,99.90
2019-03-06T19:04:20.793Z,99.90
2019-03-06T19:06:58.075Z,99.90
2019-03-06T19:09:38.234Z,99.90
2019-03-06T19:12:18.158Z,99.90
2019-03-06T19:14:57.926Z,99.90
2019-03-06T19:17:37.760Z,99.90
2019-03-06T19:20:17.040Z,99.90
2019-03-06T19:22:57.121Z,99.90
2019-03-06T19:25:37.177Z,99.90
2019-03-06T19:28:16.950Z,99.90
2019-03-06T19:30:54.449Z,99.90
2019-03-06T19:33:40.645Z,99.90
2019-03-06T19:36:20.097Z,99.90
2019-03-06T19:39:00.091Z,99.90
2019-03-06T19:41:40.306Z,99.90
2019-03-06T19:44:19.925Z,99.90
2019-03-06T19:47:00.101Z,99.90
2019-03-06T19:49:39.720Z,99.90
2019-03-06T19:52:19.821Z,99.90
2019-03-06T19:54:59.863Z,99.90
2019-03-06T19:57:39.880Z,99.90
2019-03-06T20:00:19.750Z,99.90
2019-03-06T20:02:59.916Z,99.90
2019-03-06T20:05:39.702Z,99.90
2019-03-06T20:14:15.806Z,99.90
2019-03-06T20:20:09.466Z,99.90
2019-03-06T20:22:49.193Z,99.90
2019-03-06T20:25:29.435Z,99.90
2019-03-06T20:28:09.310Z,99.90
2019-03-06T20:30:49.404Z,99.90
2019-03-06T20:33:29.538Z,99.90
2019-03-06T20:36:11.528Z,99.90
2019-03-06T20:38:50.516Z,99.90
2019-03-06T20:41:30.502Z,99.90
2019-03-06T20:44:10.422Z,99.90
2019-03-06T20:46:50.589Z,99.90
2019-03-06T20:49:30.481Z,99.90
2019-03-06T20:52:09.863Z,99.90
2019-03-06T20:54:49.730Z,99.90
2019-03-06T20:57:29.747Z,99.90
2019-03-06T21:00:09.737Z,99.90
2019-03-06T21:02:49.023Z,99.90
2019-03-06T21:05:29.055Z,99.90
2019-03-06T21:08:08.916Z,99.90
2019-03-06T21:10:48.932Z,99.90
2019-03-06T21:13:26.381Z,99.90
2019-03-06T21:16:12.661Z,99.90
2019-03-06T21:18:52.110Z,99.90
2019-03-06T21:21:32.044Z,99.90
2019-03-06T21:24:12.099Z,99.90
2019-03-06T21:26:52.357Z,99.90
2019-03-06T21:29:32.349Z,99.90
2019-03-06T21:32:12.225Z,99.90
2019-03-06T21:34:54.254Z,99.90
2019-03-06T21:37:34.325Z,99.90
2019-03-06T21:40:14.174Z,99.90
2019-03-06T21:42:54.152Z,99.90
2019-03-06T21:45:34.056Z,99.90
2019-03-06T21:48:13.171Z,99.90
2019-03-06T21:50:52.470Z,99.90
2019-03-06T21:53:32.260Z,99.90
2019-03-06T21:56:11.642Z,99.90
2019-03-06T21:58:51.245Z,99.90
2019-03-06T22:01:31.323Z,99.90
2019-03-06T22:04:11.384Z,99.90
2019-03-06T22:06:51.541Z,99.90
2019-03-06T22:09:31.467Z,99.90
2019-03-06T22:12:11.718Z,99.90
2019-03-06T22:14:51.638Z,99.90
2019-03-06T22:17:31.598Z,99.90
2019-03-06T22:20:11.199Z,99.90
2019-03-06T22:22:48.848Z,99.90
2019-03-06T22:25:35.139Z,99.90
2019-03-06T22:28:12.521Z,99.90
2019-03-06T22:30:58.726Z,99.90
2019-03-06T22:33:38.214Z,99.90
2019-03-06T22:36:17.846Z,99.90
2019-03-06T22:38:57.721Z,99.90
2019-03-06T22:41:37.798Z,99.90
2019-03-06T22:44:17.881Z,99.90
2019-03-06T22:46:57.697Z,99.90
2019-03-06T22:49:38.107Z,99.90
2019-03-06T22:52:17.781Z,99.90
2019-03-06T22:54:57.176Z,99.90
2019-03-06T22:57:36.991Z,99.90
2019-03-06T23:00:17.191Z,99.90
2019-03-06T23:02:57.048Z,99.90
2019-03-06T23:05:36.938Z,99.90
2019-03-06T23:08:16.778Z,99.90
2019-03-06T23:10:56.962Z,99.90
2019-03-06T23:13:36.881Z,99.90
2019-03-06T23:16:16.829Z,99.90
2019-03-06T23:18:57.004Z,99.90
2019-03-06T23:21:37.057Z,99.90
2019-03-06T23:24:14.296Z,99.90
2019-03-06T23:26:53.990Z,99.90
2019-03-06T23:29:34.093Z,99.90
2019-03-06T23:32:14.200Z,99.90
2019-03-06T23:34:54.065Z,99.90
2019-03-06T23:37:34.726Z,99.90
2019-03-06T23:40:14.313Z,99.90
2019-03-06T23:48:50.670Z,99.90
2019-03-06T23:51:30.967Z,99.90
2019-03-06T23:54:10.307Z,99.90
2019-03-06T23:56:50.329Z,99.90
2019-03-06T23:59:30.453Z,99.90
